CYNR

METAR CYNR 252200Z AUTO 32008G15KT 9SM BKN033 OVC038 06/02 A2950 RMK AO2 PRESRR SLP005
METAR
LOCATION
CYNR
DATE - TIME
252200Z
WIND
320 TRUE @ 8 KNOTS GUSTS 15 KNOTS
VISIBILITY
9SM
RUNWAY VISUAL RANGE
NOT REPORTED
WEATHER
CLOUDINESS
BKN033 OVC038
TEMP / DEWPOINT
6 ºC / 2 ºC
ALTIMETER
29.50 in. Hg
RECENT WEATHER
NOT REPORTED
WIND SHEAR
NOT REPORTED
REMARKS
RMK AO2 PRESRR SLP005
SEA LEVEL PRESSURE: hPa

CYNR

METAR CYNR 252100Z AUTO 31010KT 9SM BKN035 BKN041 07/03 A2946 RMK AO2 PRESRR SLP991
METAR
LOCATION
CYNR
DATE - TIME
252100Z
WIND
310 TRUE @ 10 KNOTS
VISIBILITY
9SM
RUNWAY VISUAL RANGE
NOT REPORTED
WEATHER
CLOUDINESS
BKN035 BKN041
TEMP / DEWPOINT
7 ºC / 3 ºC
ALTIMETER
29.46 in. Hg
RECENT WEATHER
NOT REPORTED
WIND SHEAR
NOT REPORTED
REMARKS
RMK AO2 PRESRR SLP991
SEA LEVEL PRESSURE: hPa

CYNR

METAR CYNR 252000Z AUTO 12003KT 9SM BKN034 04/03 A2942 RMK AO2 PRESRR SLP979
METAR
LOCATION
CYNR
DATE - TIME
252000Z
WIND
120 TRUE @ 3 KNOTS
VISIBILITY
9SM
RUNWAY VISUAL RANGE
NOT REPORTED
WEATHER
CLOUDINESS
BKN034
TEMP / DEWPOINT
4 ºC / 3 ºC
ALTIMETER
29.42 in. Hg
RECENT WEATHER
NOT REPORTED
WIND SHEAR
NOT REPORTED
REMARKS
RMK AO2 PRESRR SLP979
SEA LEVEL PRESSURE: hPa

Your time UTC time
 
 
Weather data provided by AXYS Technologies Inc., www.axystechnologies.com
 
Station History